Time;durP1;ratioP1;P1;durP2;ratioP2;P2;SDS_P1;SDS_P2;PMS_P1;PMS_P2;Temp;Humidity;BMP_temperature;BMP_pressure;BME280_temperature;BME280_humidity;BME280_pressure;Samples;Min_cycle;Max_cycle;Signal;HPM_P1;HPM_P2
2024/01/04 00:01:26;;;;;;;5.50;1.33;;;;;;;;;;5018707;28;20468;-89
2024/01/04 00:03:52;;;;;;;5.25;1.40;;;;;;;;;;5018052;28;20506;-88
2024/01/04 00:06:20;;;;;;;5.53;1.58;;;;;;;;;;5020155;28;20462;-88
2024/01/04 00:08:46;;;;;;;3.70;1.20;;;;;;;;;;5024785;28;20459;-90
2024/01/04 00:11:19;;;;;;;6.32;1.50;;;;;;;;;;5026852;28;20449;-91
2024/01/04 00:14:02;;;;;;;8.35;1.73;;;;;;;;;;5045259;28;20459;-90
2024/01/04 00:16:40;;;;;;;5.45;1.30;;;;;;;;;;5043853;28;20399;-89
2024/01/04 00:19:06;;;;;;;6.15;1.80;;;;;;;;;;5038904;28;20398;-90
2024/01/04 00:21:41;;;;;;;7.18;1.35;;;;;;;;;;5047913;28;20402;-92
2024/01/04 00:24:16;;;;;;;4.13;1.23;;;;;;;;;;5033485;28;20420;-89
2024/01/04 00:26:42;;;;;;;6.13;1.70;;;;;;;;;;5031883;28;20406;-91
2024/01/04 00:29:13;;;;;;;5.03;1.40;;;;;;;;;;5031762;28;20397;-90
2024/01/04 00:31:42;;;;;;;5.25;1.52;;;;;;;;;;5030531;28;20500;-89
2024/01/04 00:34:11;;;;;;;5.57;1.30;;;;;;;;;;5048757;28;20401;-90
2024/01/04 00:36:43;;;;;;;5.35;1.42;;;;;;;;;;5032587;28;20482;-90
2024/01/04 00:39:09;;;;;;;5.80;1.60;;;;;;;;;;5034129;28;20508;-89
2024/01/04 00:41:38;;;;;;;4.85;1.75;;;;;;;;;;5031897;28;20405;-89
2024/01/04 00:44:04;;;;;;;4.07;1.70;;;;;;;;;;5031296;28;20405;-91
2024/01/04 00:46:30;;;;;;;7.13;1.40;;;;;;;;;;5045935;28;20432;-88
2024/01/04 00:48:59;;;;;;;3.60;1.02;;;;;;;;;;5021811;28;20401;-89
2024/01/04 00:51:25;;;;;;;4.67;1.10;;;;;;;;;;5037053;28;20763;-88
2024/01/04 00:53:51;;;;;;;4.95;1.27;;;;;;;;;;5027351;28;20412;-87
2024/01/04 00:56:18;;;;;;;3.25;0.82;;;;;;;;;;5041058;28;20396;-88
2024/01/04 00:58:44;;;;;;;5.25;0.93;;;;;;;;;;5041258;28;20396;-88
2024/01/04 01:01:10;;;;;;;3.87;0.87;;;;;;;;;;5040710;28;20406;-88
2024/01/04 01:03:38;;;;;;;6.43;1.10;;;;;;;;;;5035419;28;20414;-88
2024/01/04 01:06:11;;;;;;;4.57;1.00;;;;;;;;;;5034825;28;20413;-91
2024/01/04 01:08:38;;;;;;;5.28;1.08;;;;;;;;;;5035178;28;20386;-91
2024/01/04 01:11:05;;;;;;;4.07;1.10;;;;;;;;;;5035811;28;20429;-91
2024/01/04 01:13:35;;;;;;;5.75;1.00;;;;;;;;;;5067604;28;20408;-90
2024/01/04 01:16:02;;;;;;;4.03;1.10;;;;;;;;;;5033683;28;20409;-89
2024/01/04 01:18:28;;;;;;;3.80;1.10;;;;;;;;;;5029613;28;20418;-88
2024/01/04 01:24:44;;;;;;;2.72;1.10;;;6.20;99.90;;;;;;5077881;28;20367;-89
2024/01/04 01:27:10;;;;;;;4.72;1.10;;;;;;;;;;5054601;28;20406;-89
2024/01/04 01:29:37;;;;;;;7.47;1.50;;;;;;;;;;5056655;28;20408;-88
2024/01/04 01:32:03;;;;;;;5.15;1.10;;;;;;;;;;5056610;28;20936;-89
2024/01/04 01:34:29;;;;;;;4.95;1.00;;;;;;;;;;5023253;28;20405;-89
2024/01/04 01:36:55;;;;;;;5.88;1.35;;;;;;;;;;5023324;28;20433;-89
2024/01/04 01:39:21;;;;;;;3.55;1.00;;;;;;;;;;5037707;28;20455;-89
2024/01/04 01:41:47;;;;;;;5.77;1.20;;;;;;;;;;5026089;28;20507;-90
2024/01/04 01:44:13;;;;;;;5.32;1.20;;;;;;;;;;5032127;28;20432;-89
2024/01/04 01:46:40;;;;;;;5.37;1.10;;;;;;;;;;5012413;28;20470;-89
2024/01/04 01:49:07;;;;;;;4.07;1.20;;;;;;;;;;5016741;28;20883;-89
2024/01/04 01:51:33;;;;;;;4.68;1.05;;;;;;;;;;5016789;28;20884;-89
2024/01/04 01:53:59;;;;;;;7.28;1.00;;;;;;;;;;5017573;28;20407;-89
2024/01/04 01:56:26;;;;;;;6.23;1.03;;;;;;;;;;5020898;28;20399;-91
2024/01/04 01:58:52;;;;;;;5.55;1.30;;;;;;;;;;5026291;28;20403;-89
2024/01/04 02:01:18;;;;;;;5.13;0.98;;;;;;;;;;5032505;28;20481;-90
2024/01/04 02:03:44;;;;;;;5.75;1.30;;;;;;;;;;5026267;28;20409;-89
2024/01/04 02:06:10;;;;;;;6.80;1.15;;;;;;;;;;5026120;28;20421;-90
2024/01/04 02:08:37;;;;;;;3.35;1.25;;;;;;;;;;5026257;28;20412;-89
2024/01/04 02:11:05;;;;;;;5.85;1.00;;;;;;;;;;5036554;28;20517;-90
2024/01/04 02:13:32;;;;;;;4.78;1.20;;;;;;;;;;5046644;28;20402;-89
2024/01/04 02:15:58;;;;;;;4.50;0.90;;;;;;;;;;5031057;28;20430;-90
2024/01/04 02:18:24;;;;;;;2.65;1.00;;;;;;;;;;5038394;28;20414;-90
2024/01/04 02:20:50;;;;;;;5.40;1.00;;;;;;;;;;5030806;28;20424;-90
2024/01/04 02:23:17;;;;;;;4.00;1.20;;;;;;;;;;5048567;28;20405;-91
2024/01/04 02:25:43;;;;;;;4.65;0.85;;;;;;;;;;5045631;28;20407;-92
2024/01/04 02:28:10;;;;;;;2.70;0.75;;;;;;;;;;5037367;28;20466;-91
2024/01/04 02:30:36;;;;;;;3.58;0.88;;;;;;;;;;5028640;28;20492;-91
2024/01/04 02:33:02;;;;;;;3.25;1.00;;;;;;;;;;5031807;28;20424;-91
2024/01/04 02:35:28;;;;;;;2.85;0.70;;;;;;;;;;5031878;28;20414;-90
2024/01/04 02:37:55;;;;;;;5.82;1.20;;;;;;;;;;5030845;28;20406;-89
2024/01/04 02:40:22;;;;;;;3.85;0.77;;;;;;;;;;5035499;28;20399;-89
2024/01/04 02:42:48;;;;;;;3.37;0.77;;;;;;;;;;5036746;28;20442;-90
2024/01/04 02:45:15;;;;;;;3.85;1.00;;;;;;;;;;5032839;28;20437;-90
2024/01/04 02:47:42;;;;;;;3.50;0.95;;;;;;;;;;5030488;28;20409;-91
2024/01/04 02:50:09;;;;;;;2.70;0.80;;;;;;;;;;5035344;28;20400;-90
2024/01/04 02:52:35;;;;;;;2.85;0.90;;;;;;;;;;5034065;28;20780;-90
2024/01/04 02:55:01;;;;;;;5.72;1.00;;;;;;;;;;5019099;28;20403;-90
2024/01/04 02:57:27;;;;;;;4.80;0.90;;;;;;;;;;5003519;28;20435;-89
2024/01/04 02:59:53;;;;;;;5.68;1.00;;;;;;;;;;5019218;28;20399;-88
2024/01/04 03:02:19;;;;;;;4.47;1.30;;;;;;;;;;5023390;28;20411;-89
2024/01/04 03:04:45;;;;;;;2.92;0.75;;;;;;;;;;5018674;28;20405;-88
2024/01/04 03:07:12;;;;;;;4.00;0.82;;;;;;;;;;5006725;28;20767;-89
2024/01/04 03:09:38;;;;;;;3.35;0.90;;;;;;;;;;4988907;28;20925;-88
2024/01/04 03:12:05;;;;;;;3.30;0.90;;;;;;;;;;5017512;28;20431;-88
2024/01/04 03:14:31;;;;;;;5.05;1.00;;;;;;;;;;5008844;28;20954;-88
2024/01/04 03:16:57;;;;;;;2.93;0.90;;;;;;;;;;5013572;28;20403;-88
2024/01/04 03:19:23;;;;;;;3.90;0.80;;;;;;;;;;5018533;28;20491;-88
2024/01/04 03:21:49;;;;;;;4.88;0.82;;;;;;;;;;5015514;28;20409;-88
2024/01/04 03:24:15;;;;;;;7.38;1.08;;;;;;;;;;5016957;28;20413;-88
2024/01/04 03:26:41;;;;;;;6.72;1.02;;;;;;;;;;5039567;28;20907;-87
2024/01/04 03:29:07;;;;;;;5.07;0.80;;;;;;;;;;5001973;28;20592;-87
2024/01/04 03:31:33;;;;;;;4.65;1.23;;;;;;;;;;5001486;28;20465;-88
2024/01/04 03:34:00;;;;;;;4.75;0.90;;;;;;;;;;5031089;28;20411;-90
2024/01/04 03:36:26;;;;;;;3.72;1.00;;;;;;;;;;5014996;28;20405;-90
2024/01/04 03:38:58;;;;;;;4.28;1.10;;;;;;;;;;5036691;28;20486;-90
2024/01/04 03:41:25;;;;;;;2.75;1.00;;;;;;;;;;5001877;28;20456;-91
2024/01/04 03:43:51;;;;;;;4.07;1.38;;;;;;;;;;5033888;28;20407;-90
2024/01/04 03:46:18;;;;;;;5.50;1.00;;;;;;;;;;5038584;28;20503;-91
2024/01/04 03:48:44;;;;;;;3.37;1.00;;;;;;;;;;5032128;28;20857;-90
2024/01/04 03:51:12;;;;;;;5.30;1.05;;;;;;;;;;5028730;28;20431;-89
2024/01/04 03:53:38;;;;;;;2.95;0.82;;;;;;;;;;4979643;28;20903;-88
2024/01/04 03:56:07;;;;;;;3.13;0.90;;;;;;;;;;5014336;28;20429;-88
2024/01/04 03:58:34;;;;;;;4.97;1.25;;;;;;;;;;5017554;28;20748;-88
2024/01/04 04:01:02;;;;;;;7.93;1.10;;;;;;;;;;5017526;28;20406;-89
2024/01/04 04:03:28;;;;;;;4.93;1.13;;;;;;;;;;5034397;28;20405;-89
2024/01/04 04:05:54;;;;;;;4.53;0.93;;;;;;;;;;5011395;28;20770;-88
2024/01/04 04:08:20;;;;;;;5.72;1.05;;;;;;;;;;5017354;28;20725;-90
2024/01/04 04:10:46;;;;;;;3.63;0.90;;;;;;;;;;5016908;28;20423;-89
2024/01/04 04:13:13;;;;;;;4.10;1.20;;;;;;;;;;5028080;28;20427;-88
2024/01/04 04:15:39;;;;;;;4.80;0.95;;;;;;;;;;5017481;28;20971;-89
2024/01/04 04:18:05;;;;;;;4.45;1.02;;;;;;;;;;5002302;28;20465;-88
2024/01/04 04:20:31;;;;;;;3.58;0.90;;;;;;;;;;5034169;28;20399;-89
2024/01/04 04:22:57;;;;;;;3.63;0.90;;;;;;;;;;5018541;28;20541;-87
2024/01/04 04:25:24;;;;;;;2.95;0.90;;;;;;;;;;5037957;28;20460;-89
2024/01/04 04:27:53;;;;;;;2.97;1.02;;;;;;;;;;5023045;28;20409;-89
2024/01/04 04:30:19;;;;;;;5.07;0.90;;;;;;;;;;5038757;28;20413;-89
2024/01/04 04:32:45;;;;;;;2.70;0.85;;;;;;;;;;4999337;28;20557;-88
2024/01/04 04:35:12;;;;;;;3.40;0.88;;;;;;;;;;5003341;28;20457;-91
2024/01/04 04:37:38;;;;;;;2.97;0.80;;;;;;;;;;5013919;28;20399;-90
2024/01/04 04:40:05;;;;;;;2.92;0.88;;;;;;;;;;5012370;28;20419;-90
2024/01/04 04:42:32;;;;;;;2.25;0.82;;;;;;;;;;5054002;28;20424;-90
2024/01/04 04:45:00;;;;;;;4.35;0.80;;;;;;;;;;5052050;28;20413;-90
2024/01/04 04:47:26;;;;;;;3.85;1.10;;;;;;;;;;5011035;28;20749;-90
2024/01/04 04:49:52;;;;;;;3.97;1.00;;;;;;;;;;5034838;28;20412;-90
2024/01/04 04:52:18;;;;;;;3.97;0.93;;;;;;;;;;5042726;28;20491;-90
2024/01/04 04:54:47;;;;;;;1.63;0.90;;;;;;;;;;5044167;28;20921;-89
2024/01/04 04:57:13;;;;;;;2.58;0.90;;;;;;;;;;5012737;28;20771;-90
2024/01/04 04:59:39;;;;;;;4.68;0.88;;;;;;;;;;5012085;28;20498;-89
2024/01/04 05:02:06;;;;;;;3.30;0.93;;;;;;;;;;5013223;28;20422;-88
2024/01/04 05:04:32;;;;;;;4.50;0.90;;;;;;;;;;5016931;28;20407;-89
2024/01/04 05:06:58;;;;;;;3.55;0.77;;;;;;;;;;5015290;28;20926;-90
2024/01/04 05:09:25;;;;;;;3.88;0.88;;;;;;;;;;5014192;28;20455;-90
2024/01/04 05:11:51;;;;;;;5.18;0.98;;;;;;;;;;5005473;28;20427;-90
2024/01/04 05:14:18;;;;;;;5.00;1.30;;;;;;;;;;4992522;28;20397;-90
2024/01/04 05:16:44;;;;;;;3.63;0.90;;;;;;;;;;5022697;28;20410;-90
2024/01/04 05:19:10;;;;;;;4.25;0.90;;;;;;;;;;5004424;28;20438;-90
2024/01/04 05:21:37;;;;;;;3.92;1.10;;;;;;;;;;5026170;28;20407;-90
2024/01/04 05:24:05;;;;;;;4.72;1.10;;;;;;;;;;5008756;28;20949;-90
2024/01/04 05:26:32;;;;;;;3.05;0.90;;;;;;;;;;5015216;28;20406;-90
2024/01/04 05:28:58;;;;;;;5.70;1.10;;;;;;;;;;5014486;28;20499;-90
2024/01/04 05:31:25;;;;;;;3.58;0.90;;;;;;;;;;5039937;28;20502;-90
2024/01/04 05:33:52;;;;;;;5.15;0.93;;;;;;;;;;4988403;28;21088;-89
2024/01/04 05:36:18;;;;;;;4.90;1.05;;;;;;;;;;5004117;28;20431;-92
2024/01/04 05:38:44;;;;;;;5.20;1.00;;;;;;;;;;5000781;28;20438;-91
2024/01/04 05:41:10;;;;;;;3.40;1.07;;;;;;;;;;5015429;28;20412;-89
2024/01/04 05:43:36;;;;;;;4.43;1.00;;;;;;;;;;4983129;28;20963;-89
2024/01/04 05:46:05;;;;;;;4.57;1.03;;;;;;;;;;4991741;28;20426;-89
2024/01/04 05:48:32;;;;;;;4.40;0.90;;;;;;;;;;4999184;28;20411;-89
2024/01/04 05:50:59;;;;;;;5.32;1.27;;;;;;;;;;4998966;28;20481;-88
2024/01/04 05:53:25;;;;;;;3.03;1.10;;;;;;;;;;4997113;28;20504;-88
2024/01/04 05:55:51;;;;;;;4.43;1.08;;;;;;;;;;4983378;28;20427;-89
2024/01/04 05:58:17;;;;;;;3.53;1.00;;;;;;;;;;4993662;28;20406;-88
2024/01/04 06:00:43;;;;;;;4.07;1.10;;;;;;;;;;5017319;28;20406;-89
2024/01/04 06:03:09;;;;;;;2.45;1.00;;;;;;;;;;4992935;28;20460;-89
2024/01/04 06:05:38;;;;;;;8.00;1.30;;;;;;;;;;5005416;28;20428;-88
2024/01/04 06:08:04;;;;;;;3.55;1.23;;;;;;;;;;5021272;28;20899;-88
2024/01/04 06:10:30;;;;;;;2.70;0.85;;;;;;;;;;5016139;28;20747;-92
2024/01/04 06:12:57;;;;;;;5.78;1.20;;;;;;;;;;5019751;28;20394;-91
2024/01/04 06:15:25;;;;;;;4.30;0.90;;;;;;;;;;5003875;28;20424;-91
2024/01/04 06:17:52;;;;;;;3.92;1.13;;;;;;;;;;5020517;28;20401;-90
2024/01/04 06:20:20;;;;;;;4.07;1.40;;;;;;;;;;5018310;28;20476;-91
2024/01/04 06:22:46;;;;;;;2.72;1.05;;;;;;;;;;5019451;28;20496;-91
2024/01/04 06:25:13;;;;;;;4.93;1.00;;;;;;;;;;5022173;28;20402;-92
2024/01/04 06:27:39;;;;;;;2.95;0.90;;;;;;;;;;5024559;28;20395;-92
2024/01/04 06:30:06;;;;;;;3.92;1.10;;;;;;;;;;5023497;28;20769;-90
2024/01/04 06:32:32;;;;;;;3.78;1.10;;;;;;;;;;5054621;28;20427;-88
2024/01/04 06:34:58;;;;;;;4.65;1.02;;;;;;;;;;5016728;28;20909;-88
2024/01/04 06:37:24;;;;;;;3.90;1.10;;;;;;;;;;5020274;28;20472;-88
2024/01/04 06:40:16;;;;;;;3.92;1.00;;;;;;;;;;5005767;28;20412;-90
2024/01/04 06:42:55;;;;;;;4.90;1.10;;;;;;;;;;5032725;28;20401;-90
2024/01/04 06:45:22;;;;;;;3.08;0.85;;;;;;;;;;5032690;28;20924;-89
2024/01/04 06:47:49;;;;;;;5.70;1.10;;;;;;;;;;5030262;28;20885;-87
2024/01/04 06:50:42;;;;;;;5.40;1.40;;;;;;;;;;5010916;28;20533;-90
2024/01/04 06:53:10;;;;;;;4.55;1.50;;;;;;;;;;5002196;28;20405;-89
2024/01/04 06:55:38;;;;;;;3.67;1.02;;;;;;;;;;5031684;28;20400;-88
2024/01/04 06:58:14;;;;;;;6.80;1.27;;;;;;;;;;5015832;28;20458;-88
2024/01/04 07:00:41;;;;;;;5.25;1.50;;;;;;;;;;5017397;28;20402;-89
2024/01/04 07:03:07;;;;;;;4.03;1.23;;;;;;;;;;5034179;28;20405;-87
2024/01/04 07:05:33;;;;;;;7.03;1.20;;;;;;;;;;5029589;28;20984;-89
2024/01/04 07:07:59;;;;;;;2.72;1.20;;;;;;;;;;5040488;28;20404;-87
2024/01/04 07:10:26;;;;;;;6.40;1.30;;;;;;;;;;5041007;28;20911;-88
2024/01/04 07:12:52;;;;;;;5.03;1.10;;;;;;;;;;5018437;28;20886;-87
2024/01/04 07:15:18;;;;;;;5.95;1.38;;;;;;;;;;5026635;28;20463;-89
2024/01/04 07:17:44;;;;;;;3.17;1.08;;;;;;;;;;5024810;28;20404;-89
2024/01/04 07:20:19;;;;;;;5.72;1.55;;;;;;;;;;5024275;28;20893;-87
2024/01/04 07:23:04;;;;;;;5.68;1.60;;;3.80;99.90;;;;;;5028785;28;20413;-89
2024/01/04 07:25:32;;;;;;;4.18;1.50;;;;;;;;;;5032109;28;20535;-84
2024/01/04 07:35:23;;;;;;;;;;;;;;;;;;;;;
2024/01/04 07:38:39;;;;;;;5.70;1.42;;;;;;;;;;4988390;28;20503;-91
2024/01/04 07:47:55;;;;;;;4.43;1.42;;;;;;;;;;4940526;28;20405;-89
2024/01/04 07:54:30;;;;;;;5.05;1.30;;;4.90;99.90;;;;;;4941943;29;20471;-91
2024/01/04 08:11:01;;;;;;;4.43;1.40;;;;;;;;;;4868061;29;20462;-93
2024/01/04 08:17:15;;;;;;;5.32;1.50;;;;;;;;;;4877982;29;20399;-91
2024/01/04 08:20:09;;;;;;;3.90;1.42;;;;;;;;;;4863972;29;20413;-91
2024/01/04 08:23:40;;;;;;;;;;;;;;;;;;;;;
2024/01/04 08:26:27;;;;;;;4.57;1.30;;;;;;;;;;4870661;29;20459;-86
2024/01/04 08:29:23;;;;;;;5.47;1.40;;;;;;;;;;4862744;29;20818;-85
2024/01/04 08:32:01;;;;;;;5.47;1.40;;;;;;;;;;4940197;28;20520;-84
2024/01/04 08:34:28;;;;;;;4.57;1.35;;;;;;;;;;4938574;29;20595;-85
2024/01/04 08:36:56;;;;;;;4.97;1.60;;;;;;;;;;4991946;28;20806;-84
2024/01/04 08:39:22;;;;;;;5.85;1.50;;;;;;;;;;5000344;28;20784;-80
2024/01/04 08:41:55;;;;;;;5.50;1.48;;;;;;;;;;5010940;28;20409;-85
2024/01/04 08:44:21;;;;;;;4.43;1.30;;;;;;;;;;5036936;28;20403;-85
2024/01/04 08:46:53;;;;;;;5.53;1.63;;;;;;;;;;5018708;28;20520;-79
2024/01/04 08:49:19;;;;;;;4.35;1.33;;;;;;;;;;5012074;28;20419;-82
2024/01/04 08:51:45;;;;;;;4.60;1.55;;;;;;;;;;5034844;28;20805;-83
2024/01/04 08:54:17;;;;;;;6.32;1.98;;;;;;;;;;5004300;28;20438;-82
2024/01/04 08:56:43;;;;;;;3.95;1.40;;;;;;;;;;5014597;28;20525;-81
2024/01/04 08:59:15;;;;;;;5.53;1.80;;;;;;;;;;5005157;28;20423;-86
2024/01/04 09:01:41;;;;;;;4.38;1.60;;;;;;;;;;5032650;28;20402;-84
2024/01/04 09:04:08;;;;;;;6.22;1.60;;;;;;;;;;4986964;28;20494;-84
2024/01/04 09:06:36;;;;;;;3.60;1.40;;;;;;;;;;5021549;28;20422;-85
2024/01/04 09:09:21;;;;;;;3.05;1.40;;;;;;;;;;5025461;28;20471;-85
2024/01/04 09:11:48;;;;;;;4.75;1.60;;;;;;;;;;5039470;28;20455;-85
2024/01/04 09:14:15;;;;;;;4.43;2.00;;;;;;;;;;5030312;28;20498;-84
2024/01/04 09:16:43;;;;;;;4.32;1.70;;;;;;;;;;5033653;28;20432;-86
2024/01/04 09:19:29;;;;;;;5.65;1.77;;;;;;;;;;5053917;28;20409;-86
2024/01/04 09:22:24;;;;;;;6.18;1.90;;;;;;;;;;5048550;28;20401;-86
2024/01/04 09:24:56;;;;;;;4.88;1.63;;;;;;;;;;5019276;28;20420;-87
2024/01/04 09:27:44;;;;;;;5.43;1.70;;;;;;;;;;5011612;28;20421;-87
2024/01/04 09:30:11;;;;;;;7.18;1.88;;;;;;;;;;5018935;28;20881;-86
2024/01/04 09:32:46;;;;;;;6.93;1.73;;;;;;;;;;5015355;28;20425;-84
2024/01/04 09:35:20;;;;;;;5.05;1.80;;;;;;;;;;5034868;28;20408;-88
2024/01/04 09:38:34;;;;;;;9.45;1.88;;;4.70;99.90;;;;;;4996848;28;20487;-87
2024/01/04 09:41:44;;;;;;;;;;;;;;;;;;;;;
2024/01/04 09:44:32;;;;;;;6.72;2.10;;;;;;;;;;4994068;28;20427;-85
2024/01/04 09:47:10;;;;;;;5.57;1.70;;;;;;;;;;4995524;28;20405;-85
2024/01/04 09:50:10;;;;;;;4.90;1.88;;;;;;;;;;4978842;28;20416;-87
2024/01/04 09:52:39;;;;;;;4.55;1.80;;;;;;;;;;4990103;28;20428;-87
2024/01/04 09:55:12;;;;;;;6.50;1.83;;;;;;;;;;4978809;28;20405;-87
2024/01/04 09:58:19;;;;;;;;;;;;;;;;;;;;;
2024/01/04 10:00:33;;;;;;;5.40;1.90;;;;;;;;;;4959721;28;20491;-85
2024/01/04 10:03:34;;;;;;;4.73;1.80;;;;;;;;;;4951579;28;20732;-85
2024/01/04 10:06:06;;;;;;;5.40;1.67;;;;;;;;;;4965502;28;20404;-85
2024/01/04 10:09:08;;;;;;;4.72;1.60;;;5.20;99.90;;;;;;4945142;28;20418;-86
2024/01/04 10:11:57;;;;;;;6.10;1.60;;;;;;;;;;4949100;28;20439;-86
2024/01/04 10:14:35;;;;;;;5.38;1.40;;;;;;;;;;4920842;29;20416;-85
2024/01/04 10:17:05;;;;;;;4.82;1.52;;;;;;;;;;4915864;29;20424;-85
2024/01/04 10:19:40;;;;;;;5.60;2.60;;;;;;;;;;4979465;28;20408;-86
2024/01/04 10:22:09;;;;;;;6.05;2.00;;;;;;;;;;4940985;29;20414;-85
2024/01/04 10:24:51;;;;;;;28.70;15.50;;;;;;;;;;4948422;29;20502;-86
2024/01/04 10:27:17;;;;;;;7.63;1.83;;;;;;;;;;4916665;29;20435;-85
2024/01/04 10:29:51;;;;;;;4.57;1.20;;;;;;;;;;4937164;28;20414;-85
2024/01/04 10:32:29;;;;;;;4.80;1.23;;;;;;;;;;4969607;28;20445;-87
2024/01/04 10:35:11;;;;;;;4.22;1.20;;;;;;;;;;4986794;28;20422;-86
2024/01/04 10:37:41;;;;;;;2.83;1.30;;;;;;;;;;4975275;28;20922;-87
2024/01/04 10:40:09;;;;;;;2.83;1.20;;;;;;;;;;5002653;28;20432;-87
2024/01/04 10:42:55;;;;;;;5.57;1.27;;;;;;;;;;5034950;28;20454;-86
2024/01/04 10:45:45;;;;;;;2.63;1.02;;;;;;;;;;5038213;28;20403;-87
2024/01/04 10:48:43;;;;;;;4.20;1.13;;;;;;;;;;5011642;28;20417;-86
2024/01/04 10:51:26;;;;;;;2.95;1.00;;;;;;;;;;5002843;28;20462;-86
2024/01/04 10:54:01;;;;;;;3.95;1.20;;;;;;;;;;4980659;28;20807;-85
2024/01/04 10:57:17;;;;;;;3.70;1.50;;;5.50;99.90;;;;;;4994170;28;20908;-84
2024/01/04 11:03:35;;;;;;;4.22;1.25;;;;;;;;;;4946766;28;20414;-85
2024/01/04 11:06:03;;;;;;;4.70;1.17;;;;;;;;;;4945473;28;20448;-85
2024/01/04 11:08:36;;;;;;;5.80;1.10;;;;;;;;;;4994588;28;20447;-86
2024/01/04 11:11:11;;;;;;;5.32;1.20;;;;;;;;;;4978764;28;20428;-84
2024/01/04 11:13:37;;;;;;;3.10;1.10;;;;;;;;;;4972671;28;20410;-85
2024/01/04 11:16:27;;;;;;;4.13;1.20;;;5.40;99.90;;;;;;4976956;28;20434;-86
2024/01/04 11:19:13;;;;;;;4.82;1.40;;;;;;;;;;4974359;28;20799;-87
2024/01/04 11:21:39;;;;;;;3.88;1.20;;;;;;;;;;4986628;28;20488;-85
2024/01/04 11:24:15;;;;;;;4.35;1.30;;;;;;;;;;4963827;28;20433;-81
2024/01/04 11:27:00;;;;;;;3.97;1.30;;;;;;;;;;5008465;28;20419;-86
2024/01/04 11:29:27;;;;;;;4.82;1.40;;;;;;;;;;5034401;28;20911;-86
2024/01/04 11:31:53;;;;;;;9.10;1.40;;;;;;;;;;5019561;28;20918;-82
2024/01/04 11:34:19;;;;;;;5.70;1.10;;;;;;;;;;5025097;28;20432;-83
2024/01/04 11:36:49;;;;;;;6.28;2.47;;;;;;;;;;5013353;28;20418;-85
2024/01/04 11:39:37;;;;;;;5.85;2.60;;;;;;;;;;5021550;28;20903;-86
2024/01/04 11:42:14;;;;;;;4.05;1.48;;;;;;;;;;5014423;28;20759;-84
2024/01/04 11:44:40;;;;;;;3.55;1.20;;;;;;;;;;5011654;28;20411;-84
2024/01/04 11:47:14;;;;;;;3.83;1.13;;;;;;;;;;4997775;28;20738;-83
2024/01/04 11:49:47;;;;;;;4.53;1.33;;;;;;;;;;5017188;28;20423;-85
2024/01/04 11:52:15;;;;;;;4.40;1.30;;;;;;;;;;5014884;28;20422;-84
2024/01/04 11:54:41;;;;;;;5.75;1.30;;;;;;;;;;5012835;28;20484;-85
2024/01/04 11:57:18;;;;;;;2.75;1.10;;;;;;;;;;5014977;28;20843;-86
2024/01/04 11:59:44;;;;;;;5.32;1.65;;;;;;;;;;5010408;28;20401;-85
2024/01/04 12:02:20;;;;;;;4.15;1.15;;;;;;;;;;4997272;28;20449;-84
2024/01/04 12:04:47;;;;;;;4.05;1.23;;;;;;;;;;5005505;28;20498;-85
2024/01/04 12:07:13;;;;;;;3.95;1.33;;;;;;;;;;5010773;28;20429;-84
2024/01/04 12:09:59;;;;;;;7.70;1.80;;;;;;;;;;5018067;28;20818;-84
2024/01/04 12:12:31;;;;;;;4.22;1.92;;;;;;;;;;5039556;28;20426;-86
2024/01/04 12:14:59;;;;;;;4.90;2.50;;;;;;;;;;5048895;28;20403;-85
2024/01/04 12:17:25;;;;;;;5.17;1.90;;;;;;;;;;5038053;28;20506;-86
2024/01/04 12:19:51;;;;;;;3.58;1.30;;;;;;;;;;5038832;28;20431;-86
2024/01/04 12:22:18;;;;;;;3.72;1.45;;;;;;;;;;5034965;28;20437;-86
2024/01/04 12:24:45;;;;;;;4.05;1.45;;;;;;;;;;5053284;28;20410;-86
2024/01/04 12:27:11;;;;;;;8.38;3.08;;;;;;;;;;5053617;28;20416;-86
2024/01/04 12:29:53;;;;;;;5.55;2.13;;;;;;;;;;5028655;28;21347;-86
2024/01/04 12:32:23;;;;;;;6.30;3.47;;;;;;;;;;5034444;28;20929;-87
2024/01/04 12:35:30;;;;;;;6.35;2.30;;;;;;;;;;5052310;28;20416;-86
2024/01/04 12:38:00;;;;;;;3.42;1.27;;;;;;;;;;5036137;28;20427;-86
2024/01/04 12:40:32;;;;;;;5.05;1.20;;;;;;;;;;5035459;28;20429;-86
2024/01/04 12:43:21;;;;;;;3.88;1.10;;;;;;;;;;5050185;28;20443;-85
2024/01/04 12:46:16;;;;;;;6.18;1.30;;;;;;;;;;5039623;28;20407;-84
2024/01/04 12:48:42;;;;;;;4.90;1.80;;;;;;;;;;5035187;28;20409;-84
2024/01/04 12:51:14;;;;;;;5.22;2.38;;;;;;;;;;5038981;28;20563;-85
2024/01/04 12:53:41;;;;;;;3.08;1.40;;;;;;;;;;5036379;28;20403;-84
2024/01/04 12:56:08;;;;;;;14.20;8.68;;;;;;;;;;5080468;28;20405;-84
2024/01/04 12:58:34;;;;;;;4.25;2.05;;;;;;;;;;5031058;28;20502;-85
2024/01/04 13:01:01;;;;;;;4.25;1.20;;;;;;;;;;5060971;28;20400;-84
2024/01/04 13:03:28;;;;;;;4.45;1.52;;;;;;;;;;5021293;28;20494;-84
2024/01/04 13:05:54;;;;;;;8.32;1.55;;;;;;;;;;5048311;28;20436;-84
2024/01/04 13:08:20;;;;;;;6.03;2.55;;;;;;;;;;5015206;28;20454;-84
2024/01/04 13:10:57;;;;;;;5.03;2.10;;;;;;;;;;5024931;28;20725;-84
2024/01/04 13:13:25;;;;;;;15.57;6.93;;;;;;;;;;5047649;28;20424;-85
2024/01/04 13:15:51;;;;;;;6.38;3.47;;;;;;;;;;5025610;28;20401;-86
2024/01/04 13:18:17;;;;;;;5.93;2.90;;;;;;;;;;5035746;28;20409;-85
2024/01/04 13:20:43;;;;;;;3.17;1.17;;;;;;;;;;5035946;28;20401;-84
2024/01/04 13:23:09;;;;;;;2.92;1.15;;;;;;;;;;5018777;28;20829;-86
2024/01/04 13:25:35;;;;;;;3.70;1.25;;;;;;;;;;5033922;28;20451;-85
2024/01/04 13:28:01;;;;;;;2.97;1.05;;;;;;;;;;5024315;28;20907;-85
2024/01/04 13:30:28;;;;;;;3.70;1.50;;;;;;;;;;5018279;28;20410;-85
2024/01/04 13:32:54;;;;;;;10.40;1.45;;;;;;;;;;5036782;28;20421;-83
2024/01/04 13:35:20;;;;;;;3.97;1.25;;;;;;;;;;5049218;28;20421;-84
2024/01/04 13:37:47;;;;;;;3.60;1.42;;;;;;;;;;5035255;28;20405;-87
2024/01/04 13:40:21;;;;;;;7.40;1.92;;;;;;;;;;5021668;28;20750;-85
2024/01/04 13:43:17;;;;;;;3.30;1.10;;;;;;;;;;5005709;28;20411;-88
2024/01/04 13:46:30;;;;;;;5.82;1.77;;;;;;;;;;5039413;28;21815;-88
2024/01/04 13:48:48;;;;;;;5.60;1.23;;;;;;;;;;5027246;28;20507;-86
2024/01/04 13:51:14;;;;;;;3.20;1.05;;;;;;;;;;5025614;28;20435;-88
2024/01/04 13:53:43;;;;;;;3.90;1.20;;;;;;;;;;5037304;28;20532;-86
2024/01/04 13:56:09;;;;;;;3.85;1.10;;;;;;;;;;5033724;28;20885;-86
2024/01/04 13:58:42;;;;;;;4.25;1.40;;;;;;;;;;5033761;28;20720;-83
2024/01/04 14:01:28;;;;;;;6.35;1.63;;;;;;;;;;5029524;28;20433;-84
2024/01/04 14:03:54;;;;;;;3.38;1.15;;;;;;;;;;5014551;28;20491;-84
2024/01/04 14:06:21;;;;;;;6.57;1.20;;;;;;;;;;5035674;28;20420;-84
2024/01/04 14:08:47;;;;;;;4.90;1.50;;;;;;;;;;5014357;28;20496;-84
2024/01/04 14:11:15;;;;;;;4.55;1.58;;;;;;;;;;5016515;28;20426;-84
2024/01/04 14:13:41;;;;;;;4.47;1.20;;;;;;;;;;5040448;28;20936;-84
2024/01/04 14:16:08;;;;;;;4.18;1.40;;;;;;;;;;5032691;28;20522;-84
2024/01/04 14:18:34;;;;;;;4.23;1.10;;;;;;;;;;5032427;28;20405;-84
2024/01/04 14:21:00;;;;;;;4.20;1.20;;;;;;;;;;5043347;28;20434;-84
2024/01/04 14:23:27;;;;;;;4.25;1.60;;;;;;;;;;5046515;28;20453;-83
2024/01/04 14:25:53;;;;;;;5.43;1.70;;;;;;;;;;5033507;28;20416;-84
2024/01/04 14:28:20;;;;;;;4.30;1.60;;;;;;;;;;5017230;28;20417;-84
2024/01/04 14:30:46;;;;;;;3.67;1.35;;;;;;;;;;5016832;28;20918;-85
2024/01/04 14:33:12;;;;;;;4.75;2.30;;;;;;;;;;5017936;28;20405;-85
2024/01/04 14:35:58;;;;;;;4.10;2.10;;;;;;;;;;5020463;28;20889;-85
2024/01/04 14:38:24;;;;;;;5.22;1.65;;;;;;;;;;5037809;28;20401;-85
2024/01/04 14:40:50;;;;;;;3.78;1.80;;;;;;;;;;5037532;28;20419;-85
2024/01/04 14:43:16;;;;;;;5.25;2.00;;;;;;;;;;5028514;28;20453;-86
2024/01/04 14:45:42;;;;;;;4.38;1.60;;;;;;;;;;5052951;28;20475;-87
2024/01/04 14:48:08;;;;;;;4.70;1.40;;;;;;;;;;5035898;28;20487;-85
2024/01/04 14:50:34;;;;;;;4.25;1.30;;;;;;;;;;5027541;28;20409;-85
2024/01/04 14:53:03;;;;;;;4.47;1.15;;;;;;;;;;5038044;28;20424;-86
2024/01/04 14:55:29;;;;;;;4.60;1.30;;;;;;;;;;5016288;28;20425;-87
2024/01/04 14:57:55;;;;;;;4.75;2.00;;;;;;;;;;5022554;28;20777;-86
2024/01/04 15:00:22;;;;;;;4.75;1.70;;;;;;;;;;5022789;28;20434;-87
2024/01/04 15:03:04;;;;;;;4.85;1.50;;;;;;;;;;5035085;28;20393;-86
2024/01/04 15:05:43;;;;;;;8.02;1.83;;;;;;;;;;5023993;28;20411;-85
2024/01/04 15:09:26;;;;;;;;;;;;;;;;;;;;;
2024/01/04 15:12:01;;;;;;;4.35;1.77;;;;;;;;;;4990946;28;20426;-86
2024/01/04 15:14:27;;;;;;;3.60;1.40;;;;;;;;;;4974837;28;20406;-86
2024/01/04 15:16:53;;;;;;;5.53;1.70;;;;;;;;;;4970407;28;20750;-86
2024/01/04 15:19:19;;;;;;;5.07;2.08;;;;;;;;;;4989781;28;20431;-86
2024/01/04 15:21:46;;;;;;;4.45;2.00;;;;;;;;;;4990632;28;20887;-87
2024/01/04 15:24:25;;;;;;;5.95;3.35;;;;;;;;;;4974106;28;21190;-86
2024/01/04 15:27:04;;;;;;;7.00;3.28;;;;;;;;;;4969836;28;20415;-87
2024/01/04 15:29:31;;;;;;;7.43;3.33;;;;;;;;;;4991659;28;20510;-86
2024/01/04 15:31:59;;;;;;;8.82;4.85;;;;;;;;;;4987330;28;20436;-85
2024/01/04 15:34:25;;;;;;;6.22;2.10;;;;;;;;;;5019526;28;20766;-85
2024/01/04 15:36:52;;;;;;;6.10;2.50;;;;;;;;;;5037929;28;20401;-85
2024/01/04 15:39:18;;;;;;;9.02;2.70;;;;;;;;;;5039056;28;20415;-84
2024/01/04 15:41:48;;;;;;;7.20;4.13;;;;;;;;;;5033907;28;20413;-86
2024/01/04 15:44:15;;;;;;;6.65;3.92;;;;;;;;;;5040931;28;20403;-86
2024/01/04 15:46:41;;;;;;;5.97;3.33;;;;;;;;;;5038941;28;20479;-86
2024/01/04 15:49:07;;;;;;;5.55;2.30;;;;;;;;;;5029440;28;20407;-85
2024/01/04 15:51:34;;;;;;;4.18;2.10;;;;;;;;;;5039402;28;20844;-87